KGSB

Seymour Johnson AFB Airport

Goldsboro, North Carolina, USA
METAR KGSB 170556Z AUTO 00000KT 10SM CLR 00/M04 A3026 RMK AO2 SLP251 T00001037 10038 21008 58003 $
Observed Flight Rules
Dec-17 @ 05:56 UTC (20 minutes ago) Visual Flight Rules
Wind Visibility Clouds
Calm 10 miles
  • Clear skies
Temperatures Readings
Current 0°C / 32°F
Dewpoint -4°C / 25°F
Humidity 75%
Altimeter 30.26" Hg
Pressure 1025.1 hPa
Elevation 33
METAR KGSB 170556Z AUTO 00000KT 10SM CLR 00/M04 A3026 RMK AO2 SLP251 T00001037 10038 21008 58003 $
Observed Flight Rules
Dec-17 @ 05:56 UTC
(20 minutes ago)
VFR
Wind Visibility
Calm 10 miles
Clouds
  • Clear skies
Temperature Dewpoint
0°C / 32°F -4°C / 25°F
Humidity Altimeter Pressure
75% 30.26" Hg 1025.1 hPa